sensor_id;sensor_type;location;lat;lon;timestamp;temperature;humidity
59703;DHT22;45570;48.782;8.332;2022-11-15T12:38:13;13.20;99.90
59703;DHT22;45570;48.782;8.332;2022-11-15T12:41:23;13.40;99.90
59703;DHT22;45570;48.782;8.332;2022-11-15T12:43:52;13.80;99.90
59703;DHT22;45570;48.782;8.332;2022-11-15T12:46:58;14.20;99.90
59703;DHT22;45570;48.782;8.332;2022-11-15T12:49:43;14.40;99.90
59703;DHT22;45570;48.782;8.332;2022-11-15T12:52:12;14.70;99.90
59703;DHT22;45570;48.782;8.332;2022-11-15T12:54:57;15.20;99.90
59703;DHT22;45570;48.782;8.332;2022-11-15T12:57:35;15.70;99.90
59703;DHT22;45570;48.782;8.332;2022-11-15T13:03:27;15.90;99.90
59703;DHT22;45570;48.782;8.332;2022-11-15T13:06:03;15.70;99.90
59703;DHT22;45570;48.782;8.332;2022-11-15T13:08:41;15.50;99.90
59703;DHT22;45570;48.782;8.332;2022-11-15T13:11:47;15.30;99.90
59703;DHT22;45570;48.782;8.332;2022-11-15T13:14:44;15.00;99.90
59703;DHT22;45570;48.782;8.332;2022-11-15T13:17:28;14.90;99.90
59703;DHT22;45570;48.782;8.332;2022-11-15T13:20:00;14.80;99.90
59703;DHT22;45570;48.782;8.332;2022-11-15T13:22:38;14.80;99.90
59703;DHT22;45570;48.782;8.332;2022-11-15T13:28:17;14.70;99.90
59703;DHT22;45570;48.782;8.332;2022-11-15T13:30:51;14.70;99.90
59703;DHT22;45570;48.782;8.332;2022-11-15T13:33:23;14.70;99.90
59703;DHT22;45570;48.782;8.332;2022-11-15T13:36:00;14.70;99.90
59703;DHT22;45570;48.782;8.332;2022-11-15T13:38:31;14.60;99.90
59703;DHT22;45570;48.782;8.332;2022-11-15T13:41:16;14.60;99.90
59703;DHT22;45570;48.782;8.332;2022-11-15T13:43:48;14.50;99.90
59703;DHT22;45570;48.782;8.332;2022-11-15T13:46:17;14.60;99.90
59703;DHT22;45570;48.782;8.332;2022-11-15T13:48:53;14.60;99.90
59703;DHT22;45570;48.782;8.332;2022-11-15T13:51:26;14.70;99.90
59703;DHT22;45570;48.782;8.332;2022-11-15T13:53:58;14.80;99.90
59703;DHT22;45570;48.782;8.332;2022-11-15T13:56:29;14.70;99.90
59703;DHT22;45570;48.782;8.332;2022-11-15T13:59:08;14.70;99.90
59703;DHT22;45570;48.782;8.332;2022-11-15T14:01:41;14.70;99.90
59703;DHT22;45570;48.782;8.332;2022-11-15T14:04:13;14.70;99.90
59703;DHT22;45570;48.782;8.332;2022-11-15T14:06:48;14.70;99.90
59703;DHT22;45570;48.782;8.332;2022-11-15T14:09:30;14.70;99.90
59703;DHT22;45570;48.782;8.332;2022-11-15T14:12:01;14.90;99.90
59703;DHT22;45570;48.782;8.332;2022-11-15T14:14:31;14.90;99.90
59703;DHT22;45570;48.782;8.332;2022-11-15T14:17:00;14.90;99.90
59703;DHT22;45570;48.782;8.332;2022-11-15T14:19:37;14.90;99.90
59703;DHT22;45570;48.782;8.332;2022-11-15T14:22:18;15.00;99.90
59703;DHT22;45570;48.782;8.332;2022-11-15T14:25:05;15.00;99.90
59703;DHT22;45570;48.782;8.332;2022-11-15T14:27:35;14.90;99.90
